KSHR/SHR METAR and TAF weather

Enter ICAO airport designator
Station Type Date Time Source
KSHR METAR 2021/09/20 04:53 UTC NOAA

KSHR 200453Z AUTO 34004KT 10SM OVC110 09/07 A2994 RMK AO2 SLP123 T00940067


Station Type Date Time Source
KSHR Decoded METAR 2021/09/20 04:53 UTC NOAA

SHERIDAN COUNTY AIRPORT, WY, United States (KSHR) 44-46N 106-58W 1202M
Sep 20, 2021 - 12:53 AM EDT / 2021.09.20 0453 UTC
Wind: from the NNW (340 degrees) at 5 MPH (4 KT):0
Visibility: 10 mile(s):0
Sky conditions: overcast
Temperature: 48.9 F (9.4 C)
Dew Point: 44.1 F (6.7 C)
Relative Humidity: 83%
Pressure (altimeter): 29.94 in. Hg (1013 hPa)
ob: KSHR 200453Z AUTO 34004KT 10SM OVC110 09/07 A2994 RMK AO2 SLP123 T00940067
cycle: 5

Station Type Date Time Source
KSHR TAF 2021/09/19 18:24 UTC NOAA

TAF KSHR 191722Z 1918/2018 32011G20KT P6SM VCSH SCT100
FM192000 32020G30KT P6SM VCSH SCT100
FM192300 33014G21KT P6SM -RA SCT025 BKN040
FM200200 VRB06KT P6SM -SHRA BKN040
FM200900 33011KT P6SM VCSH SCT040

Example: see airport list